sensor_id;sensor_type;location;lat;lon;timestamp;pressure;altitude;pressure_sealevel;temperature;humidity
82870;BME280;72645;47.136;15.420;2024-02-26T00:01:48;95865.84;;;2.80;69.63
82870;BME280;72645;47.136;15.420;2024-02-26T00:04:19;95869.16;;;2.77;69.67
82870;BME280;72645;47.136;15.420;2024-02-26T00:06:51;95871.48;;;2.76;69.70
82870;BME280;72645;47.136;15.420;2024-02-26T00:09:24;95865.43;;;2.76;69.61
82870;BME280;72645;47.136;15.420;2024-02-26T00:11:55;95864.16;;;2.75;69.49
82870;BME280;72645;47.136;15.420;2024-02-26T00:14:27;95856.84;;;2.71;69.51
82870;BME280;72645;47.136;15.420;2024-02-26T00:16:58;95851.89;;;2.63;69.80
82870;BME280;72645;47.136;15.420;2024-02-26T00:19:29;95844.98;;;2.55;69.86
82870;BME280;72645;47.136;15.420;2024-02-26T00:22:00;95845.98;;;2.53;69.65
82870;BME280;72645;47.136;15.420;2024-02-26T00:24:31;95837.75;;;2.52;69.77
82870;BME280;72645;47.136;15.420;2024-02-26T00:27:02;95831.98;;;2.51;70.36
82870;BME280;72645;47.136;15.420;2024-02-26T00:29:33;95834.61;;;2.48;70.32
82870;BME280;72645;47.136;15.420;2024-02-26T00:32:05;95830.89;;;2.49;70.62
82870;BME280;72645;47.136;15.420;2024-02-26T00:34:36;95823.52;;;2.48;70.57
82870;BME280;72645;47.136;15.420;2024-02-26T00:37:07;95819.67;;;2.40;70.69
82870;BME280;72645;47.136;15.420;2024-02-26T00:39:38;95820.45;;;2.37;70.32
82870;BME280;72645;47.136;15.420;2024-02-26T00:42:10;95820.73;;;2.33;70.63
82870;BME280;72645;47.136;15.420;2024-02-26T00:44:41;95816.48;;;2.34;70.81
82870;BME280;72645;47.136;15.420;2024-02-26T00:47:12;95813.58;;;2.34;71.15
82870;BME280;72645;47.136;15.420;2024-02-26T00:49:43;95815.95;;;2.30;71.32
82870;BME280;72645;47.136;15.420;2024-02-26T00:52:14;95813.36;;;2.21;71.50
82870;BME280;72645;47.136;15.420;2024-02-26T00:54:45;95812.84;;;2.16;71.02
82870;BME280;72645;47.136;15.420;2024-02-26T00:57:16;95810.02;;;2.12;70.91
82870;BME280;72645;47.136;15.420;2024-02-26T00:59:47;95808.23;;;2.13;71.18
82870;BME280;72645;47.136;15.420;2024-02-26T01:02:20;95812.00;;;2.18;71.12
82870;BME280;72645;47.136;15.420;2024-02-26T01:04:51;95821.55;;;2.24;71.04
82870;BME280;72645;47.136;15.420;2024-02-26T01:07:22;95817.72;;;2.32;70.89
82870;BME280;72645;47.136;15.420;2024-02-26T01:09:53;95816.11;;;2.39;71.00
82870;BME280;72645;47.136;15.420;2024-02-26T01:12:24;95825.26;;;2.44;70.43
82870;BME280;72645;47.136;15.420;2024-02-26T01:14:55;95815.61;;;2.41;69.84
82870;BME280;72645;47.136;15.420;2024-02-26T01:17:27;95816.23;;;2.31;70.24
82870;BME280;72645;47.136;15.420;2024-02-26T01:19:58;95814.21;;;2.23;70.15
82870;BME280;72645;47.136;15.420;2024-02-26T01:22:29;95803.92;;;2.13;70.53
82870;BME280;72645;47.136;15.420;2024-02-26T01:25:00;95802.17;;;1.97;70.96
82870;BME280;72645;47.136;15.420;2024-02-26T01:27:31;95799.66;;;1.87;71.25
82870;BME280;72645;47.136;15.420;2024-02-26T01:30:02;95802.02;;;1.83;71.60
82870;BME280;72645;47.136;15.420;2024-02-26T01:32:33;95800.67;;;1.83;71.78
82870;BME280;72645;47.136;15.420;2024-02-26T01:35:06;95801.63;;;1.89;71.67
82870;BME280;72645;47.136;15.420;2024-02-26T01:37:40;95803.05;;;1.97;71.24
82870;BME280;72645;47.136;15.420;2024-02-26T01:40:13;95797.95;;;2.03;70.73
82870;BME280;72645;47.136;15.420;2024-02-26T01:42:47;95788.48;;;2.00;71.00
82870;BME280;72645;47.136;15.420;2024-02-26T01:45:19;95786.54;;;1.97;71.28
82870;BME280;72645;47.136;15.420;2024-02-26T01:47:54;95784.67;;;1.96;71.33
82870;BME280;72645;47.136;15.420;2024-02-26T01:50:27;95785.13;;;1.88;71.16
82870;BME280;72645;47.136;15.420;2024-02-26T01:52:58;95777.90;;;1.76;71.75
82870;BME280;72645;47.136;15.420;2024-02-26T01:55:30;95777.17;;;1.65;71.94
82870;BME280;72645;47.136;15.420;2024-02-26T01:58:01;95780.42;;;1.56;72.02
82870;BME280;72645;47.136;15.420;2024-02-26T02:00:32;95779.98;;;1.45;72.08
82870;BME280;72645;47.136;15.420;2024-02-26T02:03:04;95775.05;;;1.42;72.18
82870;BME280;72645;47.136;15.420;2024-02-26T02:05:35;95772.56;;;1.42;72.25
82870;BME280;72645;47.136;15.420;2024-02-26T02:08:14;95768.14;;;1.49;72.24
82870;BME280;72645;47.136;15.420;2024-02-26T02:10:45;95765.20;;;1.56;72.27
82870;BME280;72645;47.136;15.420;2024-02-26T02:13:19;95767.86;;;1.67;72.22
82870;BME280;72645;47.136;15.420;2024-02-26T02:15:50;95762.05;;;1.76;72.17
82870;BME280;72645;47.136;15.420;2024-02-26T02:18:21;95762.45;;;1.82;72.36
82870;BME280;72645;47.136;15.420;2024-02-26T02:20:52;95759.62;;;1.83;72.30
82870;BME280;72645;47.136;15.420;2024-02-26T02:23:25;95766.80;;;1.86;72.21
82870;BME280;72645;47.136;15.420;2024-02-26T02:25:57;95763.08;;;1.89;72.40
82870;BME280;72645;47.136;15.420;2024-02-26T02:28:29;95758.45;;;1.91;72.52
82870;BME280;72645;47.136;15.420;2024-02-26T02:31:00;95758.08;;;1.92;72.48
82870;BME280;72645;47.136;15.420;2024-02-26T02:33:31;95756.63;;;1.88;72.53
82870;BME280;72645;47.136;15.420;2024-02-26T02:36:03;95755.95;;;1.85;72.47
82870;BME280;72645;47.136;15.420;2024-02-26T02:38:41;95762.16;;;1.83;72.32
82870;BME280;72645;47.136;15.420;2024-02-26T02:41:19;95755.66;;;1.82;72.16
82870;BME280;72645;47.136;15.420;2024-02-26T02:43:51;95760.59;;;1.83;72.12
82870;BME280;72645;47.136;15.420;2024-02-26T02:46:22;95760.49;;;1.89;71.75
82870;BME280;72645;47.136;15.420;2024-02-26T02:48:53;95753.93;;;1.92;71.52
82870;BME280;72645;47.136;15.420;2024-02-26T02:51:24;95753.25;;;1.94;71.31
82870;BME280;72645;47.136;15.420;2024-02-26T02:53:55;95754.70;;;1.95;71.37
82870;BME280;72645;47.136;15.420;2024-02-26T02:56:26;95760.92;;;2.00;71.26
82870;BME280;72645;47.136;15.420;2024-02-26T02:58:57;95762.05;;;1.96;71.03
82870;BME280;72645;47.136;15.420;2024-02-26T03:01:28;95753.69;;;1.83;71.12
82870;BME280;72645;47.136;15.420;2024-02-26T03:03:59;95753.71;;;1.69;71.30
82870;BME280;72645;47.136;15.420;2024-02-26T03:06:30;95747.83;;;1.61;71.12
82870;BME280;72645;47.136;15.420;2024-02-26T03:09:01;95743.59;;;1.55;71.42
82870;BME280;72645;47.136;15.420;2024-02-26T03:11:32;95745.70;;;1.49;71.65
82870;BME280;72645;47.136;15.420;2024-02-26T03:14:03;95739.96;;;1.43;71.56
82870;BME280;72645;47.136;15.420;2024-02-26T03:16:36;95738.46;;;1.28;71.69
82870;BME280;72645;47.136;15.420;2024-02-26T03:19:07;95737.77;;;1.11;72.06
82870;BME280;72645;47.136;15.420;2024-02-26T03:21:38;95736.66;;;0.98;72.12
82870;BME280;72645;47.136;15.420;2024-02-26T03:24:09;95735.33;;;0.98;72.32
82870;BME280;72645;47.136;15.420;2024-02-26T03:26:42;95732.15;;;1.01;71.84
82870;BME280;72645;47.136;15.420;2024-02-26T03:29:13;95724.35;;;1.04;72.18
82870;BME280;72645;47.136;15.420;2024-02-26T03:31:44;95723.62;;;1.09;72.13
82870;BME280;72645;47.136;15.420;2024-02-26T03:34:15;95720.84;;;1.12;72.26
82870;BME280;72645;47.136;15.420;2024-02-26T03:36:48;95715.80;;;1.13;72.62
82870;BME280;72645;47.136;15.420;2024-02-26T03:39:19;95714.92;;;1.13;72.65
82870;BME280;72645;47.136;15.420;2024-02-26T03:41:52;95712.39;;;1.17;72.87
82870;BME280;72645;47.136;15.420;2024-02-26T03:44:23;95715.77;;;1.18;72.99
82870;BME280;72645;47.136;15.420;2024-02-26T03:46:54;95713.67;;;1.13;72.85
82870;BME280;72645;47.136;15.420;2024-02-26T03:49:26;95714.11;;;1.05;72.80
82870;BME280;72645;47.136;15.420;2024-02-26T03:51:57;95717.01;;;0.96;72.96
82870;BME280;72645;47.136;15.420;2024-02-26T03:54:28;95713.58;;;0.94;72.96
82870;BME280;72645;47.136;15.420;2024-02-26T03:56:59;95713.11;;;0.93;72.91
82870;BME280;72645;47.136;15.420;2024-02-26T03:59:30;95715.06;;;0.97;72.72
82870;BME280;72645;47.136;15.420;2024-02-26T04:02:01;95716.81;;;1.03;72.41
82870;BME280;72645;47.136;15.420;2024-02-26T04:04:35;95718.57;;;1.10;72.48
82870;BME280;72645;47.136;15.420;2024-02-26T04:07:06;95718.63;;;1.16;72.52
82870;BME280;72645;47.136;15.420;2024-02-26T04:09:38;95719.73;;;1.23;72.55
82870;BME280;72645;47.136;15.420;2024-02-26T04:12:11;95721.21;;;1.30;72.34
82870;BME280;72645;47.136;15.420;2024-02-26T04:14:42;95718.48;;;1.32;71.89
82870;BME280;72645;47.136;15.420;2024-02-26T04:17:14;95719.71;;;1.27;71.92
82870;BME280;72645;47.136;15.420;2024-02-26T04:19:45;95719.55;;;1.23;72.06
82870;BME280;72645;47.136;15.420;2024-02-26T04:22:16;95717.30;;;1.18;72.05
82870;BME280;72645;47.136;15.420;2024-02-26T04:24:47;95714.00;;;1.16;72.01
82870;BME280;72645;47.136;15.420;2024-02-26T04:27:18;95717.34;;;1.15;71.85
82870;BME280;72645;47.136;15.420;2024-02-26T04:29:49;95712.53;;;1.10;71.81
82870;BME280;72645;47.136;15.420;2024-02-26T04:32:20;95715.98;;;1.01;71.58
82870;BME280;72645;47.136;15.420;2024-02-26T04:34:51;95712.59;;;0.88;71.75
82870;BME280;72645;47.136;15.420;2024-02-26T04:37:22;95715.09;;;0.77;71.88
82870;BME280;72645;47.136;15.420;2024-02-26T04:39:53;95715.52;;;0.76;71.81
82870;BME280;72645;47.136;15.420;2024-02-26T04:42:24;95715.91;;;0.80;71.61
82870;BME280;72645;47.136;15.420;2024-02-26T04:44:56;95717.50;;;0.84;71.65
82870;BME280;72645;47.136;15.420;2024-02-26T04:47:27;95719.43;;;0.89;71.51
82870;BME280;72645;47.136;15.420;2024-02-26T04:49:58;95717.03;;;0.91;71.57
82870;BME280;72645;47.136;15.420;2024-02-26T04:52:29;95720.33;;;0.91;71.61
82870;BME280;72645;47.136;15.420;2024-02-26T04:55:00;95722.39;;;0.91;71.56
82870;BME280;72645;47.136;15.420;2024-02-26T04:57:31;95720.13;;;0.81;71.60
82870;BME280;72645;47.136;15.420;2024-02-26T05:00:02;95718.16;;;0.75;71.78
82870;BME280;72645;47.136;15.420;2024-02-26T05:02:34;95722.81;;;0.65;72.28
82870;BME280;72645;47.136;15.420;2024-02-26T05:05:09;95720.45;;;0.60;72.29
82870;BME280;72645;47.136;15.420;2024-02-26T05:07:42;95720.09;;;0.53;72.55
82870;BME280;72645;47.136;15.420;2024-02-26T05:10:14;95718.80;;;0.49;72.59
82870;BME280;72645;47.136;15.420;2024-02-26T05:12:44;95716.35;;;0.47;72.70
82870;BME280;72645;47.136;15.420;2024-02-26T05:15:15;95714.02;;;0.49;72.74
82870;BME280;72645;47.136;15.420;2024-02-26T05:17:48;95713.52;;;0.53;72.47
82870;BME280;72645;47.136;15.420;2024-02-26T05:20:19;95714.15;;;0.59;72.74
82870;BME280;72645;47.136;15.420;2024-02-26T05:22:50;95718.27;;;0.69;72.67
82870;BME280;72645;47.136;15.420;2024-02-26T05:25:21;95714.31;;;0.81;72.73
82870;BME280;72645;47.136;15.420;2024-02-26T05:27:52;95709.44;;;0.91;72.31
82870;BME280;72645;47.136;15.420;2024-02-26T05:30:23;95705.54;;;0.97;71.82
82870;BME280;72645;47.136;15.420;2024-02-26T05:32:56;95707.31;;;0.94;72.17
82870;BME280;72645;47.136;15.420;2024-02-26T05:35:27;95706.06;;;0.95;72.38
82870;BME280;72645;47.136;15.420;2024-02-26T05:37:58;95706.11;;;0.96;71.80
82870;BME280;72645;47.136;15.420;2024-02-26T05:40:29;95700.56;;;0.90;71.68
82870;BME280;72645;47.136;15.420;2024-02-26T05:43:00;95700.60;;;0.87;71.98
82870;BME280;72645;47.136;15.420;2024-02-26T05:45:31;95703.95;;;0.86;72.23
82870;BME280;72645;47.136;15.420;2024-02-26T05:48:03;95701.16;;;0.86;72.54
82870;BME280;72645;47.136;15.420;2024-02-26T05:50:34;95706.44;;;0.85;72.93
82870;BME280;72645;47.136;15.420;2024-02-26T05:53:05;95701.70;;;0.86;73.06
82870;BME280;72645;47.136;15.420;2024-02-26T05:55:37;95705.05;;;0.88;72.97
82870;BME280;72645;47.136;15.420;2024-02-26T05:58:08;95703.10;;;0.93;73.01
82870;BME280;72645;47.136;15.420;2024-02-26T06:00:39;95699.60;;;1.03;72.85
82870;BME280;72645;47.136;15.420;2024-02-26T06:03:10;95707.98;;;1.13;72.61
82870;BME280;72645;47.136;15.420;2024-02-26T06:05:41;95708.63;;;1.23;71.88
82870;BME280;72645;47.136;15.420;2024-02-26T06:08:15;95711.65;;;1.32;71.80
82870;BME280;72645;47.136;15.420;2024-02-26T06:10:46;95716.05;;;1.32;71.90
82870;BME280;72645;47.136;15.420;2024-02-26T06:13:17;95725.67;;;1.35;71.85
82870;BME280;72645;47.136;15.420;2024-02-26T06:15:48;95725.86;;;1.37;71.48
82870;BME280;72645;47.136;15.420;2024-02-26T06:18:19;95732.27;;;1.39;71.19
82870;BME280;72645;47.136;15.420;2024-02-26T06:20:50;95730.98;;;1.38;70.78
82870;BME280;72645;47.136;15.420;2024-02-26T06:23:21;95737.27;;;1.33;70.82
82870;BME280;72645;47.136;15.420;2024-02-26T06:25:52;95742.74;;;1.28;70.97
82870;BME280;72645;47.136;15.420;2024-02-26T06:28:23;95748.66;;;1.25;71.21
82870;BME280;72645;47.136;15.420;2024-02-26T06:30:54;95753.86;;;1.25;71.37
82870;BME280;72645;47.136;15.420;2024-02-26T06:33:25;95751.72;;;1.23;71.54
82870;BME280;72645;47.136;15.420;2024-02-26T06:35:57;95754.45;;;1.24;71.69
82870;BME280;72645;47.136;15.420;2024-02-26T06:38:28;95757.36;;;1.27;71.71
82870;BME280;72645;47.136;15.420;2024-02-26T06:40:59;95763.44;;;1.33;71.69
82870;BME280;72645;47.136;15.420;2024-02-26T06:43:31;95769.52;;;1.42;72.46
82870;BME280;72645;47.136;15.420;2024-02-26T06:46:02;95772.84;;;1.79;80.59
82870;BME280;72645;47.136;15.420;2024-02-26T06:48:33;95770.64;;;2.24;79.11
82870;BME280;72645;47.136;15.420;2024-02-26T06:51:07;95773.04;;;2.33;74.17
82870;BME280;72645;47.136;15.420;2024-02-26T06:53:38;95774.08;;;2.38;72.70
82870;BME280;72645;47.136;15.420;2024-02-26T06:56:09;95771.21;;;2.32;72.29
82870;BME280;72645;47.136;15.420;2024-02-26T06:58:40;95774.41;;;2.27;71.89
82870;BME280;72645;47.136;15.420;2024-02-26T07:01:11;95773.90;;;2.24;71.79
82870;BME280;72645;47.136;15.420;2024-02-26T07:03:43;95773.02;;;2.20;71.63
82870;BME280;72645;47.136;15.420;2024-02-26T07:06:14;95778.98;;;2.16;71.64
82870;BME280;72645;47.136;15.420;2024-02-26T07:08:45;95779.29;;;2.12;71.80
82870;BME280;72645;47.136;15.420;2024-02-26T07:11:16;95783.45;;;2.14;71.91
82870;BME280;72645;47.136;15.420;2024-02-26T07:13:48;95779.42;;;2.18;71.95
82870;BME280;72645;47.136;15.420;2024-02-26T07:16:20;95782.90;;;2.19;71.79
82870;BME280;72645;47.136;15.420;2024-02-26T07:18:51;95781.45;;;2.20;71.95
82870;BME280;72645;47.136;15.420;2024-02-26T07:21:22;95783.84;;;2.23;72.16
82870;BME280;72645;47.136;15.420;2024-02-26T07:23:54;95785.23;;;2.32;72.18
82870;BME280;72645;47.136;15.420;2024-02-26T07:26:25;95783.70;;;2.45;71.99
82870;BME280;72645;47.136;15.420;2024-02-26T07:28:56;95788.20;;;2.58;71.83
82870;BME280;72645;47.136;15.420;2024-02-26T07:31:27;95780.59;;;2.74;71.77
82870;BME280;72645;47.136;15.420;2024-02-26T07:33:58;95781.52;;;2.86;71.69
82870;BME280;72645;47.136;15.420;2024-02-26T07:36:29;95777.73;;;2.97;71.60
82870;BME280;72645;47.136;15.420;2024-02-26T07:39:00;95771.75;;;3.05;71.63
82870;BME280;72645;47.136;15.420;2024-02-26T07:41:31;95781.43;;;3.12;71.53
82870;BME280;72645;47.136;15.420;2024-02-26T07:44:02;95783.77;;;3.20;71.51
82870;BME280;72645;47.136;15.420;2024-02-26T07:46:33;95783.63;;;3.25;71.53
82870;BME280;72645;47.136;15.420;2024-02-26T07:49:04;95785.05;;;3.32;71.24
82870;BME280;72645;47.136;15.420;2024-02-26T07:51:35;95788.27;;;3.39;71.33
82870;BME280;72645;47.136;15.420;2024-02-26T07:54:07;95783.75;;;3.46;71.38
82870;BME280;72645;47.136;15.420;2024-02-26T07:56:38;95788.28;;;3.51;71.14
82870;BME280;72645;47.136;15.420;2024-02-26T07:59:09;95787.52;;;3.59;71.35
82870;BME280;72645;47.136;15.420;2024-02-26T08:01:40;95789.17;;;3.68;71.20
82870;BME280;72645;47.136;15.420;2024-02-26T08:04:11;95794.14;;;3.81;71.25
82870;BME280;72645;47.136;15.420;2024-02-26T08:06:42;95801.23;;;3.92;71.22
82870;BME280;72645;47.136;15.420;2024-02-26T08:09:13;95802.36;;;4.03;71.34
82870;BME280;72645;47.136;15.420;2024-02-26T08:11:44;95805.98;;;4.18;71.15
82870;BME280;72645;47.136;15.420;2024-02-26T08:14:15;95797.20;;;4.34;70.85
82870;BME280;72645;47.136;15.420;2024-02-26T08:16:46;95795.30;;;4.51;70.65
82870;BME280;72645;47.136;15.420;2024-02-26T08:19:18;95789.13;;;4.66;70.67
82870;BME280;72645;47.136;15.420;2024-02-26T08:21:49;95787.39;;;4.80;70.68
82870;BME280;72645;47.136;15.420;2024-02-26T08:24:20;95787.93;;;4.92;70.75
82870;BME280;72645;47.136;15.420;2024-02-26T08:26:51;95795.84;;;5.07;70.64
82870;BME280;72645;47.136;15.420;2024-02-26T08:29:22;95791.68;;;5.19;70.12
82870;BME280;72645;47.136;15.420;2024-02-26T08:31:53;95793.63;;;5.32;69.65
82870;BME280;72645;47.136;15.420;2024-02-26T08:34:24;95799.90;;;5.42;69.15
82870;BME280;72645;47.136;15.420;2024-02-26T08:36:55;95795.77;;;5.51;69.04
82870;BME280;72645;47.136;15.420;2024-02-26T08:39:26;95792.23;;;5.59;69.05
82870;BME280;72645;47.136;15.420;2024-02-26T08:41:57;95794.38;;;5.74;69.09
82870;BME280;72645;47.136;15.420;2024-02-26T08:44:28;95797.11;;;5.99;68.76
82870;BME280;72645;47.136;15.420;2024-02-26T08:46:59;95794.67;;;6.23;68.10
82870;BME280;72645;47.136;15.420;2024-02-26T08:49:30;95795.34;;;6.46;67.21
82870;BME280;72645;47.136;15.420;2024-02-26T08:52:02;95801.27;;;6.63;66.97
82870;BME280;72645;47.136;15.420;2024-02-26T08:54:35;95804.23;;;6.76;66.60
82870;BME280;72645;47.136;15.420;2024-02-26T08:57:06;95802.64;;;6.85;66.57
82870;BME280;72645;47.136;15.420;2024-02-26T08:59:37;95804.24;;;6.98;66.00
82870;BME280;72645;47.136;15.420;2024-02-26T09:02:09;95809.73;;;7.10;65.77
82870;BME280;72645;47.136;15.420;2024-02-26T09:04:40;95813.73;;;7.24;65.23
82870;BME280;72645;47.136;15.420;2024-02-26T09:07:11;95813.23;;;7.39;65.17
82870;BME280;72645;47.136;15.420;2024-02-26T09:09:42;95812.79;;;7.56;64.62
82870;BME280;72645;47.136;15.420;2024-02-26T09:12:13;95803.20;;;7.78;64.22
82870;BME280;72645;47.136;15.420;2024-02-26T09:14:44;95807.11;;;7.98;64.09
82870;BME280;72645;47.136;15.420;2024-02-26T09:17:15;95808.09;;;8.18;63.69
82870;BME280;72645;47.136;15.420;2024-02-26T09:19:46;95802.14;;;8.33;62.49
82870;BME280;72645;47.136;15.420;2024-02-26T09:22:17;95796.85;;;8.45;62.29
82870;BME280;72645;47.136;15.420;2024-02-26T09:24:48;95793.88;;;8.57;61.55
82870;BME280;72645;47.136;15.420;2024-02-26T09:27:21;95793.91;;;8.71;61.07
82870;BME280;72645;47.136;15.420;2024-02-26T09:29:53;95791.80;;;8.84;60.33
82870;BME280;72645;47.136;15.420;2024-02-26T09:32:24;95793.77;;;8.93;60.04
82870;BME280;72645;47.136;15.420;2024-02-26T09:34:55;95792.85;;;9.00;59.84
82870;BME280;72645;47.136;15.420;2024-02-26T09:37:26;95794.90;;;9.09;59.31
82870;BME280;72645;47.136;15.420;2024-02-26T09:39:57;95795.08;;;9.24;59.10
82870;BME280;72645;47.136;15.420;2024-02-26T09:42:29;95799.77;;;9.38;59.34
82870;BME280;72645;47.136;15.420;2024-02-26T09:45:06;95800.46;;;9.56;60.39
82870;BME280;72645;47.136;15.420;2024-02-26T09:47:42;95806.16;;;9.77;62.51
82870;BME280;72645;47.136;15.420;2024-02-26T09:50:14;95807.27;;;9.93;59.43
82870;BME280;72645;47.136;15.420;2024-02-26T09:52:47;95811.30;;;10.08;58.34
82870;BME280;72645;47.136;15.420;2024-02-26T09:55:19;95814.34;;;10.19;56.76
82870;BME280;72645;47.136;15.420;2024-02-26T09:57:52;95818.05;;;10.20;56.14
82870;BME280;72645;47.136;15.420;2024-02-26T10:00:24;95816.09;;;10.21;56.06
82870;BME280;72645;47.136;15.420;2024-02-26T10:02:56;95818.88;;;10.29;55.80
82870;BME280;72645;47.136;15.420;2024-02-26T10:05:28;95814.16;;;10.40;55.69
82870;BME280;72645;47.136;15.420;2024-02-26T10:08:00;95816.41;;;10.56;56.05
82870;BME280;72645;47.136;15.420;2024-02-26T10:10:32;95818.12;;;10.76;55.79
82870;BME280;72645;47.136;15.420;2024-02-26T10:13:05;95811.24;;;10.91;55.58
82870;BME280;72645;47.136;15.420;2024-02-26T10:15:40;95814.67;;;11.09;55.18
82870;BME280;72645;47.136;15.420;2024-02-26T10:18:11;95812.81;;;11.27;54.08
82870;BME280;72645;47.136;15.420;2024-02-26T10:20:42;95813.08;;;11.38;53.25
82870;BME280;72645;47.136;15.420;2024-02-26T10:23:13;95812.69;;;11.50;53.71
82870;BME280;72645;47.136;15.420;2024-02-26T10:25:54;95817.11;;;11.65;53.03
82870;BME280;72645;47.136;15.420;2024-02-26T10:28:25;95821.29;;;11.82;52.13
82870;BME280;72645;47.136;15.420;2024-02-26T10:30:57;95821.40;;;11.90;51.92
82870;BME280;72645;47.136;15.420;2024-02-26T10:33:28;95823.64;;;11.90;50.36
82870;BME280;72645;47.136;15.420;2024-02-26T10:36:05;95813.29;;;11.89;50.06
82870;BME280;72645;47.136;15.420;2024-02-26T10:38:38;95810.90;;;11.93;50.06
82870;BME280;72645;47.136;15.420;2024-02-26T10:41:14;95814.87;;;12.13;54.23
82870;BME280;72645;47.136;15.420;2024-02-26T10:43:46;95816.06;;;12.37;53.51
82870;BME280;72645;47.136;15.420;2024-02-26T10:46:18;95809.85;;;12.59;52.99
82870;BME280;72645;47.136;15.420;2024-02-26T10:48:52;95812.52;;;12.74;50.80
82870;BME280;72645;47.136;15.420;2024-02-26T10:51:28;95820.23;;;12.77;49.00
82870;BME280;72645;47.136;15.420;2024-02-26T10:54:00;95819.90;;;12.74;48.48
82870;BME280;72645;47.136;15.420;2024-02-26T10:56:35;95816.63;;;12.69;48.48
82870;BME280;72645;47.136;15.420;2024-02-26T10:59:09;95816.48;;;12.74;49.03
82870;BME280;72645;47.136;15.420;2024-02-26T11:01:40;95818.44;;;12.96;48.59
82870;BME280;72645;47.136;15.420;2024-02-26T11:04:13;95814.11;;;13.17;48.07
82870;BME280;72645;47.136;15.420;2024-02-26T11:06:46;95813.61;;;13.32;46.58
82870;BME280;72645;47.136;15.420;2024-02-26T11:09:19;95811.00;;;13.41;45.52
82870;BME280;72645;47.136;15.420;2024-02-26T11:11:51;95803.95;;;13.49;45.73
82870;BME280;72645;47.136;15.420;2024-02-26T11:14:25;95801.64;;;13.55;46.07
82870;BME280;72645;47.136;15.420;2024-02-26T11:16:59;95805.02;;;13.65;45.62
82870;BME280;72645;47.136;15.420;2024-02-26T11:19:31;95804.60;;;13.67;43.01
82870;BME280;72645;47.136;15.420;2024-02-26T11:22:07;95802.45;;;13.60;43.90
82870;BME280;72645;47.136;15.420;2024-02-26T11:24:50;95796.63;;;13.59;44.34
82870;BME280;72645;47.136;15.420;2024-02-26T11:27:25;95796.77;;;13.56;43.38
82870;BME280;72645;47.136;15.420;2024-02-26T11:30:01;95799.54;;;13.38;42.21
82870;BME280;72645;47.136;15.420;2024-02-26T11:32:35;95795.27;;;13.19;42.62
82870;BME280;72645;47.136;15.420;2024-02-26T11:35:07;95790.58;;;13.05;42.68
82870;BME280;72645;47.136;15.420;2024-02-26T11:37:40;95789.50;;;12.97;42.94
82870;BME280;72645;47.136;15.420;2024-02-26T11:40:15;95784.19;;;12.98;43.02
82870;BME280;72645;47.136;15.420;2024-02-26T11:42:49;95784.75;;;13.11;42.25
82870;BME280;72645;47.136;15.420;2024-02-26T11:45:54;95780.81;;;13.30;42.00
82870;BME280;72645;47.136;15.420;2024-02-26T11:48:30;95782.96;;;13.45;41.84
82870;BME280;72645;47.136;15.420;2024-02-26T11:51:02;95784.80;;;13.42;42.13
82870;BME280;72645;47.136;15.420;2024-02-26T11:53:35;95784.59;;;13.38;41.18
82870;BME280;72645;47.136;15.420;2024-02-26T11:56:25;95785.92;;;13.34;41.48
82870;BME280;72645;47.136;15.420;2024-02-26T11:59:04;95788.33;;;13.40;41.41
82870;BME280;72645;47.136;15.420;2024-02-26T12:01:44;95783.95;;;13.40;40.38
82870;BME280;72645;47.136;15.420;2024-02-26T12:04:21;95784.08;;;13.32;40.94
82870;BME280;72645;47.136;15.420;2024-02-26T12:06:58;95781.84;;;13.18;41.14
82870;BME280;72645;47.136;15.420;2024-02-26T12:09:35;95774.74;;;13.02;41.54
82870;BME280;72645;47.136;15.420;2024-02-26T12:12:08;95778.27;;;12.88;41.87
82870;BME280;72645;47.136;15.420;2024-02-26T12:14:49;95781.08;;;12.78;42.49
82870;BME280;72645;47.136;15.420;2024-02-26T12:17:23;95782.19;;;12.72;43.06
82870;BME280;72645;47.136;15.420;2024-02-26T12:19:54;95780.77;;;12.62;42.89
82870;BME280;72645;47.136;15.420;2024-02-26T12:22:26;95773.20;;;12.48;42.67
82870;BME280;72645;47.136;15.420;2024-02-26T12:25:01;95769.41;;;12.36;42.67
82870;BME280;72645;47.136;15.420;2024-02-26T12:27:32;95771.56;;;12.25;42.84
82870;BME280;72645;47.136;15.420;2024-02-26T12:30:06;95772.75;;;12.23;43.28
82870;BME280;72645;47.136;15.420;2024-02-26T12:32:37;95770.66;;;12.26;43.54
82870;BME280;72645;47.136;15.420;2024-02-26T12:35:09;95774.96;;;12.26;43.47
82870;BME280;72645;47.136;15.420;2024-02-26T12:37:40;95779.73;;;12.20;43.63
82870;BME280;72645;47.136;15.420;2024-02-26T12:40:13;95776.61;;;12.18;43.74
82870;BME280;72645;47.136;15.420;2024-02-26T12:42:44;95776.50;;;12.29;44.32
82870;BME280;72645;47.136;15.420;2024-02-26T12:45:16;95776.38;;;12.45;44.15
82870;BME280;72645;47.136;15.420;2024-02-26T12:47:47;95774.79;;;12.71;43.71
82870;BME280;72645;47.136;15.420;2024-02-26T12:50:19;95774.21;;;12.99;43.35
82870;BME280;72645;47.136;15.420;2024-02-26T12:52:51;95774.27;;;13.33;43.73
82870;BME280;72645;47.136;15.420;2024-02-26T12:55:22;95772.50;;;13.60;42.67
82870;BME280;72645;47.136;15.420;2024-02-26T12:57:54;95770.41;;;13.77;41.95
82870;BME280;72645;47.136;15.420;2024-02-26T13:00:26;95768.52;;;13.93;41.94
82870;BME280;72645;47.136;15.420;2024-02-26T13:03:00;95771.89;;;14.17;42.04
82870;BME280;72645;47.136;15.420;2024-02-26T13:05:32;95772.06;;;14.43;41.59
82870;BME280;72645;47.136;15.420;2024-02-26T13:08:05;95773.70;;;14.62;41.53
82870;BME280;72645;47.136;15.420;2024-02-26T13:10:38;95775.10;;;14.81;40.59
82870;BME280;72645;47.136;15.420;2024-02-26T13:13:09;95775.69;;;14.99;40.44
82870;BME280;72645;47.136;15.420;2024-02-26T13:15:40;95773.42;;;15.11;40.23
82870;BME280;72645;47.136;15.420;2024-02-26T13:18:13;95778.30;;;15.24;39.60
82870;BME280;72645;47.136;15.420;2024-02-26T13:20:44;95775.66;;;15.31;39.01
82870;BME280;72645;47.136;15.420;2024-02-26T13:23:16;95776.49;;;15.33;38.19